KLMT/LMT METAR and TAF weather

Enter ICAO airport designator
Station Type Date Time Source
KLMT METAR 2024/02/26 18:43 UTC NOAA

KLMT 261843Z 28013G18KT 2 1/2SM R32/4500VP6000FT -SN BR FEW006 BKN016 OVC044 02/00 A2983 RMK AO2 PK WND 27027/1819 RAE13SNB13 P0004 T00220000


Station Type Date Time Source
KLMT Decoded METAR 2024/02/26 18:43 UTC NOAA

KLAMATH FALLS INTERNATIONAL AIRPORT, OR, United States (KLMT) 42-09N 121-43W 1246M
Feb 26, 2024 - 01:43 PM EST / 2024.02.26 1843 UTC
Wind: from the W (280 degrees) at 15 MPH (13 KT) gusting to 21 MPH (18 KT):0
Visibility: 2 1/2 mile(s):0
Sky conditions: overcast
Weather: light snow; mist
Precipitation last hour: 0.04 inches
Temperature: 36.0 F (2.2 C)
Dew Point: 32.0 F (0.0 C)
Relative Humidity: 85%
Pressure (altimeter): 29.83 in. Hg (1010 hPa)
ob: KLMT 261843Z 28013G18KT 2 1/2SM R32/4500VP6000FT -SN BR FEW006 BKN016 OVC044 02/00 A2983 RMK AO2 PK WND 27027/1819 RAE13SNB13 P0004 T00220000
cycle: 18

Station Type Date Time Source
KLMT TAF 2024/02/26 19:33 UTC NOAA